createdAt,value
2019-04-29T00:01:14.293Z,3.93
2019-04-29T00:03:47.228Z,4.03
2019-04-29T00:06:20.470Z,4.06
2019-04-29T00:08:53.471Z,4.14
2019-04-29T00:11:26.557Z,4.12
2019-04-29T00:13:59.491Z,4.09
2019-04-29T00:16:32.458Z,4.09
2019-04-29T00:19:05.506Z,4.10
2019-04-29T00:21:38.485Z,4.10
2019-04-29T00:24:12.147Z,4.16
2019-04-29T00:26:45.520Z,4.16
2019-04-29T00:29:18.609Z,4.13
2019-04-29T00:31:51.747Z,4.06
2019-04-29T00:34:24.732Z,4.06
2019-04-29T00:36:57.720Z,3.90
2019-04-29T00:39:30.859Z,3.57
2019-04-29T00:42:04.027Z,3.41
2019-04-29T00:44:36.974Z,3.32
2019-04-29T00:47:10.023Z,3.27
2019-04-29T00:49:42.964Z,3.28
2019-04-29T00:52:15.837Z,3.24
2019-04-29T00:54:48.724Z,3.17
2019-04-29T00:57:21.624Z,3.12
2019-04-29T00:59:54.912Z,3.07
2019-04-29T01:02:27.933Z,3.04
2019-04-29T01:05:00.880Z,3.02
2019-04-29T01:07:33.927Z,3.00
2019-04-29T01:10:07.098Z,3.00
2019-04-29T01:12:40.088Z,2.91
2019-04-29T01:15:13.337Z,2.91
2019-04-29T01:17:46.262Z,2.90
2019-04-29T01:20:19.269Z,2.92
2019-04-29T01:22:52.287Z,2.94
2019-04-29T01:25:25.302Z,2.94
2019-04-29T01:27:58.387Z,2.96
2019-04-29T01:30:56.092Z,2.94
2019-04-29T01:33:29.037Z,2.94
2019-04-29T01:36:01.992Z,2.91
2019-04-29T01:38:34.906Z,2.94
2019-04-29T01:41:08.130Z,2.95
2019-04-29T01:43:40.988Z,2.95
2019-04-29T01:46:14.165Z,2.83
2019-04-29T01:48:47.071Z,2.80
2019-04-29T01:51:20.070Z,2.78
2019-04-29T01:53:53.033Z,2.78
2019-04-29T01:56:27.196Z,2.69
2019-04-29T01:59:00.058Z,2.69
2019-04-29T02:01:33.383Z,2.67
2019-04-29T02:04:06.421Z,2.71
2019-04-29T02:06:39.431Z,2.75
2019-04-29T02:09:12.773Z,2.79
2019-04-29T02:11:45.779Z,2.81
2019-04-29T02:14:18.675Z,2.82
2019-04-29T02:16:53.221Z,2.80
2019-04-29T02:19:26.148Z,2.82
2019-04-29T02:21:59.042Z,2.83
2019-04-29T02:24:31.936Z,2.72
2019-04-29T02:27:05.807Z,2.55
2019-04-29T02:29:38.759Z,2.43
2019-04-29T02:32:11.715Z,2.34
2019-04-29T02:34:44.647Z,2.30
2019-04-29T02:37:17.654Z,2.34
2019-04-29T02:39:50.581Z,2.36
2019-04-29T02:42:23.489Z,2.38
2019-04-29T02:44:56.423Z,2.36
2019-04-29T02:47:29.346Z,2.34
2019-04-29T02:50:02.449Z,2.34
2019-04-29T02:52:35.347Z,2.34
2019-04-29T02:55:08.520Z,2.42
2019-04-29T02:57:41.382Z,2.49
2019-04-29T03:00:14.872Z,2.54
2019-04-29T03:02:47.860Z,2.56
2019-04-29T03:05:20.919Z,2.47
2019-04-29T03:07:53.915Z,2.47
2019-04-29T03:10:27.262Z,2.08
2019-04-29T03:13:00.297Z,1.99
2019-04-29T03:15:33.380Z,1.96
2019-04-29T03:18:06.436Z,1.96
2019-04-29T03:20:39.702Z,1.92
2019-04-29T03:23:12.769Z,2.00
2019-04-29T03:25:45.902Z,2.08
2019-04-29T03:28:18.895Z,2.04
2019-04-29T03:30:51.900Z,2.04
2019-04-29T03:33:24.911Z,2.04
2019-04-29T03:35:58.113Z,2.08
2019-04-29T03:38:31.026Z,2.13
2019-04-29T03:41:03.952Z,2.19
2019-04-29T03:43:37.197Z,2.19
2019-04-29T03:46:10.178Z,2.17
2019-04-29T03:48:43.020Z,2.18
2019-04-29T03:51:16.223Z,2.18
2019-04-29T03:53:49.132Z,2.26
2019-04-29T03:56:22.050Z,2.27
2019-04-29T03:58:54.911Z,2.28
2019-04-29T04:01:27.823Z,2.19
2019-04-29T04:04:00.701Z,2.02
2019-04-29T04:06:33.574Z,1.89
2019-04-29T04:09:06.786Z,1.85
2019-04-29T04:11:39.898Z,1.86
2019-04-29T04:14:12.756Z,1.86
2019-04-29T04:16:45.600Z,1.91
2019-04-29T04:19:18.558Z,1.81
2019-04-29T04:21:51.399Z,1.81
2019-04-29T04:24:24.425Z,1.81
2019-04-29T04:26:57.313Z,1.81
2019-04-29T04:29:30.185Z,1.76
2019-04-29T04:32:03.195Z,1.84
2019-04-29T04:34:36.047Z,1.85
2019-04-29T04:37:08.910Z,1.79
2019-04-29T04:39:41.908Z,1.80
2019-04-29T04:42:15.122Z,1.81
2019-04-29T04:44:48.011Z,1.81
2019-04-29T04:47:21.007Z,1.90
2019-04-29T04:49:53.899Z,1.90
2019-04-29T04:52:27.159Z,1.87
2019-04-29T04:55:00.328Z,1.84
2019-04-29T04:57:33.295Z,1.97
2019-04-29T05:00:06.541Z,1.97
2019-04-29T05:02:39.576Z,2.03
2019-04-29T05:05:12.806Z,2.05
2019-04-29T05:07:45.845Z,2.10
2019-04-29T05:10:18.892Z,2.12
2019-04-29T05:12:51.853Z,2.12
2019-04-29T05:15:25.200Z,2.19
2019-04-29T05:17:58.287Z,2.22
2019-04-29T05:20:31.227Z,2.25
2019-04-29T05:23:04.314Z,2.31
2019-04-29T05:25:37.335Z,2.31
2019-04-29T05:28:10.283Z,2.40
2019-04-29T05:30:43.437Z,2.59
2019-04-29T05:33:16.412Z,2.71
2019-04-29T05:35:49.327Z,2.88
2019-04-29T05:38:22.363Z,3.04
2019-04-29T05:40:56.988Z,3.04
2019-04-29T05:43:32.097Z,3.30
2019-04-29T05:46:07.384Z,3.36
2019-04-29T05:48:39.545Z,3.53
2019-04-29T05:51:12.487Z,3.53
2019-04-29T05:53:47.792Z,3.74
2019-04-29T05:56:19.964Z,3.83
2019-04-29T05:58:52.901Z,3.98
2019-04-29T06:01:25.877Z,4.12
2019-04-29T06:03:58.866Z,4.26
2019-04-29T06:06:31.713Z,4.39
2019-04-29T06:09:06.529Z,4.50
2019-04-29T06:11:39.492Z,4.65
2019-04-29T06:14:12.874Z,4.65
2019-04-29T06:16:46.239Z,4.84
2019-04-29T06:19:19.201Z,4.96
2019-04-29T06:21:52.163Z,5.13
2019-04-29T06:24:25.105Z,5.42
2019-04-29T06:26:58.257Z,5.58
2019-04-29T06:29:31.195Z,5.72
2019-04-29T06:32:04.359Z,5.72
2019-04-29T06:34:40.194Z,5.86
2019-04-29T06:37:12.356Z,6.17
2019-04-29T06:39:46.006Z,6.32
2019-04-29T06:42:19.657Z,6.48
2019-04-29T06:44:53.484Z,6.48
2019-04-29T06:47:26.489Z,6.88
2019-04-29T06:49:59.386Z,6.88
2019-04-29T06:52:32.627Z,6.98
2019-04-29T06:55:06.519Z,7.19
2019-04-29T06:57:39.433Z,7.44
2019-04-29T07:00:12.695Z,7.67
2019-04-29T07:02:49.754Z,7.93
2019-04-29T07:05:20.541Z,8.12
2019-04-29T07:07:53.434Z,8.30
2019-04-29T07:10:27.311Z,8.55
2019-04-29T07:13:00.629Z,8.55
2019-04-29T07:15:33.666Z,8.67
2019-04-29T07:18:06.833Z,8.75
2019-04-29T07:20:39.810Z,8.82
2019-04-29T07:23:12.904Z,8.83
2019-04-29T07:25:45.869Z,8.84
2019-04-29T07:28:19.667Z,8.91
2019-04-29T07:31:01.576Z,9.18
2019-04-29T07:33:27.415Z,9.56
2019-04-29T07:36:10.863Z,10.02
2019-04-29T07:38:41.508Z,10.50
2019-04-29T07:41:10.140Z,10.93
2019-04-29T07:43:44.220Z,11.13
2019-04-29T07:46:17.221Z,11.29
2019-04-29T07:49:00.736Z,11.78
2019-04-29T07:51:25.064Z,11.78
2019-04-29T07:53:57.937Z,12.13
2019-04-29T07:56:30.959Z,12.13
2019-04-29T07:59:04.631Z,12.26
2019-04-29T08:01:37.661Z,12.59
2019-04-29T08:04:10.705Z,13.07
2019-04-29T08:06:44.989Z,13.12
2019-04-29T08:09:18.138Z,14.68
2019-04-29T08:11:51.411Z,15.28
2019-04-29T08:14:27.474Z,15.28
2019-04-29T08:17:00.758Z,15.60
2019-04-29T08:19:33.990Z,15.60
2019-04-29T08:22:06.922Z,15.60
2019-04-29T08:24:39.921Z,16.18
2019-04-29T08:27:12.926Z,16.18
2019-04-29T08:29:46.115Z,16.85
2019-04-29T08:32:19.020Z,16.85
2019-04-29T08:34:53.606Z,18.09
2019-04-29T08:37:26.903Z,16.81
2019-04-29T08:40:15.152Z,16.23
2019-04-29T08:42:37.233Z,15.38
2019-04-29T08:45:09.671Z,15.38
2019-04-29T08:47:42.756Z,16.80
2019-04-29T08:50:16.183Z,18.91
2019-04-29T08:52:49.127Z,18.10
2019-04-29T08:55:22.043Z,18.51
2019-04-29T08:57:54.960Z,19.18
2019-04-29T09:00:27.981Z,19.18
2019-04-29T09:03:00.943Z,18.31
2019-04-29T09:05:33.931Z,18.31
2019-04-29T09:08:06.874Z,17.61
2019-04-29T09:10:40.082Z,16.50
2019-04-29T09:13:13.055Z,15.78
2019-04-29T09:15:46.129Z,15.84
2019-04-29T09:18:19.435Z,16.20
2019-04-29T09:20:52.514Z,15.61
2019-04-29T09:23:25.805Z,15.49
2019-04-29T09:26:02.963Z,15.95
2019-04-29T09:28:33.441Z,19.01
2019-04-29T09:31:06.392Z,19.01
2019-04-29T09:33:39.293Z,20.32
2019-04-29T09:36:13.958Z,21.13
2019-04-29T09:38:47.157Z,21.64
2019-04-29T09:41:20.189Z,21.64
2019-04-29T09:43:53.095Z,21.36
2019-04-29T09:46:30.040Z,20.05
2019-04-29T09:49:01.007Z,20.05
2019-04-29T09:51:33.980Z,18.69
2019-04-29T09:54:09.628Z,16.42
2019-04-29T09:56:42.048Z,16.98
2019-04-29T09:59:14.919Z,16.98
2019-04-29T10:01:50.602Z,16.71
2019-04-29T10:04:22.608Z,18.26
2019-04-29T10:06:55.587Z,18.17
2019-04-29T10:09:28.490Z,17.01
2019-04-29T10:12:01.450Z,17.01
2019-04-29T10:14:34.446Z,15.85
2019-04-29T10:17:11.169Z,15.85
2019-04-29T10:19:42.055Z,16.51
2019-04-29T10:22:15.252Z,17.53
2019-04-29T10:24:48.227Z,17.43
2019-04-29T10:27:21.225Z,17.50
2019-04-29T10:29:55.293Z,18.53
2019-04-29T10:32:28.848Z,18.53
2019-04-29T10:35:03.646Z,19.14
2019-04-29T10:37:36.850Z,17.53
2019-04-29T10:40:11.862Z,17.53
2019-04-29T10:42:44.829Z,16.77
2019-04-29T10:45:17.917Z,16.74
2019-04-29T10:47:51.302Z,16.65
2019-04-29T10:50:26.949Z,16.41
2019-04-29T10:53:01.333Z,16.41
2019-04-29T10:55:34.357Z,16.58
2019-04-29T10:58:07.597Z,16.58
2019-04-29T11:01:23.691Z,15.91
2019-04-29T11:04:00.710Z,15.99
2019-04-29T11:06:35.874Z,16.06
2019-04-29T11:09:09.649Z,16.06
2019-04-29T11:11:43.457Z,16.43
2019-04-29T11:14:17.063Z,17.27
2019-04-29T11:16:49.978Z,16.87
2019-04-29T11:19:23.053Z,16.26
2019-04-29T11:21:55.983Z,16.26
2019-04-29T11:24:32.330Z,15.70
2019-04-29T11:27:11.681Z,15.70
2019-04-29T11:29:38.971Z,16.07
2019-04-29T11:32:12.585Z,16.07
2019-04-29T11:34:48.441Z,16.37
2019-04-29T11:37:20.205Z,16.66
2019-04-29T11:39:53.375Z,16.77
2019-04-29T11:42:26.282Z,16.66
2019-04-29T11:45:02.114Z,16.66
2019-04-29T11:47:33.953Z,16.99
2019-04-29T11:50:11.796Z,17.93
2019-04-29T11:52:42.540Z,19.33
2019-04-29T11:55:18.603Z,19.88
2019-04-29T11:57:51.002Z,17.44
2019-04-29T12:00:24.110Z,16.84
2019-04-29T12:02:57.108Z,16.84
2019-04-29T12:05:30.399Z,17.29
2019-04-29T12:08:11.159Z,18.20
2019-04-29T12:10:46.715Z,18.78
2019-04-29T12:13:13.078Z,18.78
2019-04-29T12:15:49.274Z,20.79
2019-04-29T12:18:20.942Z,21.83
2019-04-29T12:20:53.930Z,23.06
2019-04-29T12:23:26.834Z,22.35
2019-04-29T12:26:03.224Z,22.35
2019-04-29T12:28:37.836Z,19.47
2019-04-29T12:31:10.259Z,19.47
2019-04-29T12:33:44.082Z,19.82
2019-04-29T12:36:17.116Z,18.07
2019-04-29T12:38:51.139Z,18.07
2019-04-29T12:41:29.658Z,18.41
2019-04-29T12:43:59.477Z,18.41
2019-04-29T12:46:32.754Z,20.06
2019-04-29T12:49:08.521Z,21.54
2019-04-29T12:51:40.485Z,22.18
2019-04-29T12:54:13.468Z,21.83
2019-04-29T12:56:47.633Z,22.11
2019-04-29T12:59:21.325Z,21.01
2019-04-29T13:01:58.586Z,19.75
2019-04-29T13:04:29.314Z,17.47
2019-04-29T13:07:02.536Z,17.47
2019-04-29T13:09:35.409Z,17.52
2019-04-29T13:12:18.931Z,17.52
2019-04-29T13:14:43.034Z,17.14
2019-04-29T13:17:15.968Z,16.92
2019-04-29T13:20:00.768Z,16.92
2019-04-29T13:22:23.440Z,16.62
2019-04-29T13:24:56.348Z,16.12
2019-04-29T13:27:29.655Z,16.12
2019-04-29T13:30:07.206Z,15.86
2019-04-29T13:32:38.530Z,15.86
2019-04-29T13:35:12.721Z,15.68
2019-04-29T13:37:45.912Z,15.94
2019-04-29T13:40:19.921Z,16.00
2019-04-29T13:42:52.845Z,16.24
2019-04-29T13:45:26.452Z,15.69
2019-04-29T13:48:01.873Z,15.39
2019-04-29T13:50:39.909Z,15.40
2019-04-29T13:53:11.572Z,16.05
2019-04-29T13:55:49.427Z,16.05
2019-04-29T13:58:22.073Z,15.36
2019-04-29T14:00:55.703Z,15.36
2019-04-29T14:03:27.514Z,15.47
2019-04-29T14:06:04.160Z,15.58
2019-04-29T14:08:34.889Z,15.71
2019-04-29T14:11:07.781Z,15.71
2019-04-29T14:13:43.236Z,15.65
2019-04-29T14:16:15.213Z,15.26
2019-04-29T14:18:49.927Z,14.71
2019-04-29T14:21:25.641Z,14.19
2019-04-29T14:23:57.597Z,13.84
2019-04-29T14:26:30.525Z,13.56
2019-04-29T14:29:03.739Z,13.50
2019-04-29T14:31:36.577Z,13.50
2019-04-29T14:34:09.648Z,13.44
2019-04-29T14:36:43.553Z,13.28
2019-04-29T14:39:17.547Z,13.28
2019-04-29T14:41:55.465Z,13.21
2019-04-29T14:44:30.190Z,13.21
2019-04-29T14:47:01.330Z,13.35
2019-04-29T14:49:35.435Z,13.28
2019-04-29T14:52:13.299Z,13.27
2019-04-29T14:54:44.113Z,13.40
2019-04-29T14:57:17.090Z,13.41
2019-04-29T14:59:50.272Z,13.41
2019-04-29T15:02:23.492Z,13.12
2019-04-29T15:04:56.638Z,13.37
2019-04-29T15:07:29.872Z,13.37
2019-04-29T15:10:03.917Z,13.36
2019-04-29T15:12:50.980Z,13.36
2019-04-29T15:15:11.696Z,13.09
2019-04-29T15:17:46.272Z,12.99
2019-04-29T15:20:19.401Z,12.63
2019-04-29T15:22:52.290Z,12.47
2019-04-29T15:25:25.232Z,12.36
2019-04-29T15:27:58.267Z,12.36
2019-04-29T15:30:31.861Z,12.34
2019-04-29T15:33:06.199Z,12.34
2019-04-29T15:35:39.435Z,12.34
2019-04-29T15:38:12.350Z,12.34
2019-04-29T15:40:45.453Z,12.30
2019-04-29T15:43:24.618Z,12.04
2019-04-29T15:45:53.126Z,11.96
2019-04-29T15:48:26.028Z,11.89
2019-04-29T15:50:59.004Z,11.53
2019-04-29T15:53:33.973Z,11.53
2019-04-29T15:56:20.484Z,11.59
2019-04-29T15:58:41.926Z,11.59
2019-04-29T16:01:17.636Z,11.66
2019-04-29T16:03:54.047Z,11.48
2019-04-29T16:06:24.719Z,11.48
2019-04-29T16:08:59.050Z,11.37
2019-04-29T16:11:33.325Z,11.30
2019-04-29T16:14:10.276Z,11.17
2019-04-29T16:16:42.201Z,11.17
2019-04-29T16:19:15.139Z,11.13
2019-04-29T16:21:48.193Z,11.06
2019-04-29T16:24:37.162Z,11.06
2019-04-29T16:26:55.859Z,11.03
2019-04-29T16:29:30.443Z,10.91
2019-04-29T16:32:05.023Z,10.91
2019-04-29T16:34:44.644Z,11.04
2019-04-29T16:37:19.039Z,11.04
2019-04-29T16:39:47.699Z,11.13
2019-04-29T16:42:20.775Z,11.01
2019-04-29T16:44:53.654Z,11.01
2019-04-29T16:47:26.605Z,10.99
2019-04-29T16:50:04.687Z,10.99
2019-04-29T16:52:34.323Z,10.96
2019-04-29T16:55:07.584Z,10.91
2019-04-29T16:57:40.593Z,10.82
2019-04-29T17:00:15.830Z,10.78
2019-04-29T17:02:49.002Z,10.79
2019-04-29T17:05:21.919Z,10.99
2019-04-29T17:07:54.930Z,10.99
2019-04-29T17:10:27.969Z,10.80
2019-04-29T17:13:00.975Z,10.83
2019-04-29T17:15:34.405Z,10.84
2019-04-29T17:18:07.350Z,10.87
2019-04-29T17:20:40.699Z,10.84
2019-04-29T17:23:13.693Z,10.84
2019-04-29T17:25:46.742Z,10.82
2019-04-29T17:28:25.422Z,10.82
2019-04-29T17:30:54.854Z,10.84
2019-04-29T17:33:29.834Z,10.80
2019-04-29T17:36:03.094Z,10.78
2019-04-29T17:38:36.119Z,10.71
2019-04-29T17:41:09.384Z,10.77
2019-04-29T17:43:43.072Z,10.77
2019-04-29T17:46:17.069Z,10.75
2019-04-29T17:48:53.138Z,10.69
2019-04-29T17:51:24.881Z,10.69
2019-04-29T17:53:57.804Z,10.73
2019-04-29T17:56:30.919Z,10.76
2019-04-29T17:59:05.949Z,10.74
2019-04-29T18:01:42.853Z,10.71
2019-04-29T18:04:16.677Z,10.66
2019-04-29T18:06:48.883Z,10.57
2019-04-29T18:09:22.098Z,10.57
2019-04-29T18:11:57.519Z,10.56
2019-04-29T18:14:37.260Z,10.57
2019-04-29T18:17:05.007Z,10.57
2019-04-29T18:19:38.481Z,10.58
2019-04-29T18:22:11.527Z,10.53
2019-04-29T18:24:45.330Z,10.49
2019-04-29T18:27:18.664Z,10.52
2019-04-29T18:29:51.658Z,10.52
2019-04-29T18:32:34.984Z,10.41
2019-04-29T18:34:59.317Z,10.41
2019-04-29T18:37:36.913Z,10.44
2019-04-29T18:40:07.599Z,10.44
2019-04-29T18:42:43.329Z,10.44
2019-04-29T18:45:15.831Z,10.37
2019-04-29T18:47:48.813Z,10.33
2019-04-29T18:50:21.735Z,10.28
2019-04-29T18:52:56.043Z,10.28
2019-04-29T18:55:29.021Z,10.31
2019-04-29T18:58:02.445Z,10.33
2019-04-29T19:00:35.691Z,10.27
2019-04-29T19:03:08.720Z,10.27
2019-04-29T19:05:42.250Z,10.27
2019-04-29T19:08:22.815Z,10.20
2019-04-29T19:10:52.152Z,10.23
2019-04-29T19:13:26.069Z,10.19
2019-04-29T19:16:09.617Z,10.19
2019-04-29T19:18:34.049Z,10.23
2019-04-29T19:21:06.993Z,10.21
2019-04-29T19:23:40.037Z,10.21
2019-04-29T19:26:13.922Z,10.21
2019-04-29T19:28:46.857Z,10.19
2019-04-29T19:31:19.977Z,10.19
2019-04-29T19:33:55.055Z,10.20
2019-04-29T19:36:27.955Z,10.20
2019-04-29T19:39:00.990Z,10.18
2019-04-29T19:41:35.583Z,10.14
2019-04-29T19:44:08.598Z,10.16
2019-04-29T19:46:41.911Z,10.17
2019-04-29T19:49:15.786Z,10.17
2019-04-29T19:51:48.990Z,10.14
2019-04-29T19:54:26.636Z,10.11
2019-04-29T19:57:03.599Z,10.11
2019-04-29T19:59:32.545Z,10.11
2019-04-29T20:02:10.046Z,10.09
2019-04-29T20:04:40.853Z,10.07
2019-04-29T20:07:16.817Z,10.07
2019-04-29T20:09:49.600Z,10.02
2019-04-29T20:12:25.305Z,9.94
2019-04-29T20:14:59.790Z,9.94
2019-04-29T20:17:33.413Z,9.94
2019-04-29T20:20:07.074Z,9.88
2019-04-29T20:22:43.378Z,9.88
2019-04-29T20:25:16.471Z,9.86
2019-04-29T20:27:49.947Z,9.81
2019-04-29T20:30:23.156Z,9.77
2019-04-29T20:33:01.610Z,9.77
2019-04-29T20:35:32.151Z,9.80
2019-04-29T20:38:05.842Z,9.77
2019-04-29T20:40:43.179Z,9.75
2019-04-29T20:43:15.823Z,9.74
2019-04-29T20:45:48.445Z,9.74
2019-04-29T20:48:21.664Z,9.74
2019-04-29T20:50:56.590Z,9.78
2019-04-29T20:53:30.742Z,9.75
2019-04-29T20:56:12.248Z,9.74
2019-04-29T20:58:40.202Z,9.76
2019-04-29T21:01:15.509Z,9.74
2019-04-29T21:03:52.124Z,9.65
2019-04-29T21:06:23.085Z,9.64
2019-04-29T21:08:55.999Z,9.64
2019-04-29T21:11:29.196Z,9.73
2019-04-29T21:14:02.155Z,9.74
2019-04-29T21:16:35.199Z,9.76
2019-04-29T21:19:08.918Z,9.73
2019-04-29T21:21:43.758Z,9.72
2019-04-29T21:24:18.680Z,9.77
2019-04-29T21:26:51.505Z,9.65
2019-04-29T21:29:25.560Z,9.65
2019-04-29T21:32:01.622Z,9.67
2019-04-29T21:34:37.526Z,9.56
2019-04-29T21:37:10.046Z,9.60
2019-04-29T21:39:44.626Z,9.57
2019-04-29T21:42:17.653Z,9.57
2019-04-29T21:44:50.907Z,9.57
2019-04-29T21:47:26.810Z,9.51
2019-04-29T21:49:58.599Z,9.51
2019-04-29T21:52:31.503Z,9.55
2019-04-29T21:55:05.305Z,9.56
2019-04-29T21:57:38.274Z,9.56
2019-04-29T22:00:11.645Z,9.53
2019-04-29T22:02:46.687Z,9.50
2019-04-29T22:05:21.139Z,9.50
2019-04-29T22:07:54.256Z,9.46
2019-04-29T22:10:29.128Z,9.42
2019-04-29T22:13:02.924Z,9.42
2019-04-29T22:15:40.999Z,9.48
2019-04-29T22:18:14.073Z,9.50
2019-04-29T22:20:46.671Z,9.50
2019-04-29T22:23:19.639Z,9.43
2019-04-29T22:25:52.661Z,9.42
2019-04-29T22:28:25.636Z,9.42
2019-04-29T22:30:58.628Z,9.37
2019-04-29T22:33:34.873Z,9.22
2019-04-29T22:36:10.273Z,9.22
2019-04-29T22:38:43.619Z,9.26
2019-04-29T22:41:20.055Z,9.22
2019-04-29T22:43:50.883Z,9.22
2019-04-29T22:46:25.538Z,9.13
2019-04-29T22:48:58.647Z,9.18
2019-04-29T22:51:31.881Z,9.12
2019-04-29T22:54:05.024Z,9.12
2019-04-29T22:56:40.533Z,9.19
2019-04-29T22:59:14.761Z,9.19
2019-04-29T23:01:50.473Z,9.14
2019-04-29T23:04:22.540Z,9.21
2019-04-29T23:06:55.471Z,9.21
2019-04-29T23:09:28.443Z,9.21
2019-04-29T23:12:01.377Z,9.21
2019-04-29T23:14:36.026Z,9.20
2019-04-29T23:17:12.285Z,9.19
2019-04-29T23:19:46.613Z,9.18
2019-04-29T23:22:22.031Z,9.18
2019-04-29T23:24:53.372Z,9.18
2019-04-29T23:27:26.300Z,9.18
2019-04-29T23:29:59.204Z,9.21
2019-04-29T23:32:32.142Z,9.22
2019-04-29T23:35:09.665Z,9.22
2019-04-29T23:37:41.390Z,9.26
2019-04-29T23:40:14.347Z,9.27
2019-04-29T23:42:47.824Z,9.32
2019-04-29T23:45:22.450Z,9.25
2019-04-29T23:47:55.733Z,9.21
2019-04-29T23:50:28.756Z,9.23
2019-04-29T23:53:01.681Z,9.23
2019-04-29T23:55:35.631Z,9.22
2019-04-29T23:58:08.793Z,9.20
